Time;durP1;ratioP1;P1;durP2;ratioP2;P2;SDS_P1;SDS_P2;PMS_P1;PMS_P2;Temp;Humidity;BMP_temperature;BMP_pressure;BME280_temperature;BME280_humidity;BME280_pressure;Samples;Min_cycle;Max_cycle;Signal;HPM_P1;HPM_P2
2022/11/26 00:01:27;;;;;;;27.27;19.82;;;;;;;5.83;99.19;100867.20;1754888;80;21015;-86
2022/11/26 00:03:56;;;;;;;23.47;19.65;;;;;;;5.83;99.03;100863.29;1763977;80;21379;-87
2022/11/26 00:06:36;;;;;;;25.60;19.48;;;;;;;5.85;99.18;100867.11;1760362;80;21047;-87
2022/11/26 00:09:05;;;;;;;20.88;17.87;;;;;;;5.87;98.94;100866.61;1762309;80;21231;-88
2022/11/26 00:11:32;;;;;;;21.42;17.10;;;;;;;5.84;98.82;100872.78;1765642;80;20906;-88
2022/11/26 00:13:59;;;;;;;24.02;18.85;;;;;;;5.83;98.81;100872.40;1759235;80;20937;-87
2022/11/26 00:16:26;;;;;;;23.22;18.73;;;;;;;5.84;98.94;100871.48;1766804;79;21080;-86
2022/11/26 00:18:53;;;;;;;23.62;18.60;;;;;;;5.88;98.96;100869.62;1763625;80;21013;-87
2022/11/26 00:21:25;;;;;;;24.32;18.35;;;;;;;5.88;98.82;100882.18;1762252;80;21623;-87
2022/11/26 00:23:52;;;;;;;19.42;15.83;;;;;;;5.86;98.61;100880.09;1762152;80;21545;-88
2022/11/26 00:26:21;;;;;;;22.30;16.97;;;;;;;5.86;98.55;100883.14;1762951;81;20938;-87
2022/11/26 00:29:00;;;;;;;20.48;16.40;;;;;;;5.82;98.34;100883.70;1763784;80;20930;-86
2022/11/26 00:31:27;;;;;;;19.12;16.40;;;;;;;5.78;98.43;100883.41;1761830;80;21020;-89
2022/11/26 00:33:56;;;;;;;21.17;17.20;;;;;;;5.77;98.54;100887.77;1762898;80;21863;-87
2022/11/26 00:36:26;;;;;;;17.02;14.47;;;;;;;5.79;98.57;100891.63;1766299;80;21498;-87
2022/11/26 00:39:03;;;;;;;18.62;16.23;;;;;;;5.75;98.32;100887.43;1763472;81;20902;-87
2022/11/26 00:41:34;;;;;;;21.37;15.00;;;;;;;5.71;98.29;100893.19;1759069;80;21055;-87
2022/11/26 00:44:01;;;;;;;19.60;15.48;;;;;;;5.69;98.42;100891.11;1770397;80;20997;-88
2022/11/26 00:46:28;;;;;;;23.73;16.10;;;;;;;5.68;98.43;100888.56;1770863;80;21235;-87
2022/11/26 00:48:55;;;;;;;22.82;16.10;;;;;;;5.65;98.50;100886.92;1761165;80;20934;-86
2022/11/26 00:51:26;;;;;;;19.42;14.70;;;;;;;5.62;98.41;100890.91;1764054;80;20886;-86
2022/11/26 00:53:55;;;;;;;20.35;16.57;;;;;;;5.59;98.52;100886.67;1766980;80;20886;-86
2022/11/26 00:56:22;;;;;;;20.85;16.02;;;;;;;5.59;98.72;100889.73;1765104;80;21047;-88
2022/11/26 00:58:49;;;;;;;20.57;14.58;;;;;;;5.62;98.92;100898.72;1763075;80;21124;-86
2022/11/26 01:01:19;;;;;;;25.45;18.10;;;;;;;5.64;98.86;100894.77;1762202;81;21005;-87
2022/11/26 01:03:46;;;;;;;19.90;16.02;;;;;;;5.62;98.81;100902.62;1760260;80;20870;-87
2022/11/26 01:06:20;;;;;;;20.10;15.48;;;;;;;5.62;98.92;100900.02;1768633;80;20941;-87
2022/11/26 01:08:47;;;;;;;19.05;15.30;;;;;;;5.62;98.95;100902.62;1771726;77;20985;-86
2022/11/26 01:11:17;;;;;;;18.40;15.03;;;;;;;5.64;99.11;100903.41;1756531;79;21086;-88
2022/11/26 01:13:44;;;;;;;17.62;14.38;;;;;;;5.66;99.03;100907.27;1754052;79;20891;-87
2022/11/26 01:16:29;;;;;;;20.82;15.43;;;;;;;5.67;99.03;100908.95;1750280;80;20891;-86
2022/11/26 01:18:58;;;;;;;17.32;14.73;;;;;;;5.65;98.90;100907.73;1747908;81;20883;-87
2022/11/26 01:21:26;;;;;;;17.48;14.87;;;;;;;5.63;98.87;100908.23;1749811;80;20932;-85
2022/11/26 01:23:52;;;;;;;19.62;14.73;;;;;;;5.61;98.78;100902.23;1751251;80;21408;-86
2022/11/26 01:26:26;;;;;;;18.45;14.78;;;;;;;5.60;98.92;100911.80;1749028;80;21184;-85
2022/11/26 01:28:54;;;;;;;17.37;14.45;;;;;;;5.60;98.99;100905.72;1751409;80;20958;-87
2022/11/26 01:31:24;;;;;;;19.92;14.25;;;;;;;5.59;99.03;100899.67;1749194;81;21021;-87
2022/11/26 01:33:52;;;;;;;17.48;14.70;;;;;;;5.58;99.03;100911.00;1752412;80;21014;-85
2022/11/26 01:36:29;;;;;;;18.82;14.80;;;;;;;5.59;99.10;100906.64;1754032;80;21287;-89
2022/11/26 01:39:00;;;;;;;20.68;15.20;;;;;;;5.60;99.22;100919.60;1755991;80;20994;-87
2022/11/26 01:41:48;;;;;;;22.55;14.93;;;;;;;5.59;98.97;100912.69;1750303;80;20960;-87
2022/11/26 01:44:20;;;;;;;16.70;13.18;;;;;;;5.56;98.91;100913.26;1765700;79;21181;-87
2022/11/26 01:46:47;;;;;;;17.20;13.90;;;;;;;5.53;99.06;100914.64;1759122;80;21386;-87
2022/11/26 01:49:31;;;;;;;20.50;15.20;;;;;;;5.51;99.15;100919.89;1754222;80;21228;-87
2022/11/26 01:52:19;;;;;;;15.15;13.45;;;;;;;5.49;99.11;100919.13;1728251;80;20907;-86
2022/11/26 01:54:47;;;;;;;19.35;15.10;;;;;;;5.48;99.21;100917.86;1762346;79;20991;-86
2022/11/26 01:57:17;;;;;;;18.37;12.98;;;;;;;5.47;99.23;100919.63;1757164;80;21464;-87
2022/11/26 01:59:49;;;;;;;19.32;14.00;;;;;;;5.46;99.23;100925.70;1749357;80;20923;-86
2022/11/26 02:02:15;;;;;;;19.30;14.75;;;;;;;5.44;99.28;100923.61;1748801;80;21278;-88
2022/11/26 02:04:53;;;;;;;17.48;14.18;;;;;;;5.44;99.37;100926.67;1747713;80;20974;-87
2022/11/26 02:07:20;;;;;;;22.30;17.57;;;;;;;5.47;99.68;100926.13;1750051;81;20844;-87
2022/11/26 02:09:47;;;;;;;17.05;14.50;;;;;;;5.53;99.72;100926.35;1750227;80;20891;-87
2022/11/26 02:12:14;;;;;;;18.40;13.98;;;;;;;5.54;99.38;100928.06;1748035;81;20836;-86
2022/11/26 02:14:41;;;;;;;21.25;15.98;;;;;;;5.53;99.28;100932.39;1746472;80;21846;-85
2022/11/26 02:17:18;;;;;;;17.67;15.35;;;;;;;5.53;99.39;100931.55;1748768;80;20943;-86
2022/11/26 02:20:18;;;;;;;18.77;14.65;;;;;;;5.55;99.37;100940.16;1741394;80;20990;-84
2022/11/26 02:22:59;;;;;;;16.73;13.28;;;;;;;5.54;99.14;100933.27;1749820;81;20922;-86
2022/11/26 02:25:56;;;;;;;17.80;14.25;;;;;;;5.50;99.06;100934.27;1768481;80;20970;-86
2022/11/26 02:28:34;;;;;;;21.15;14.93;;;;;;;5.49;99.11;100941.23;1750246;80;21235;-85
2022/11/26 02:31:22;;;;;;;20.02;13.40;;;;;;;5.46;99.15;100933.97;1749973;81;20958;-85
2022/11/26 02:34:14;;;;;;;15.10;13.18;;;;;;;5.43;99.18;100936.23;1748237;81;21144;-82
2022/11/26 02:36:52;;;;;;;18.52;15.18;;;;;;;5.43;99.20;100936.69;1750921;80;21017;-87
2022/11/26 02:39:21;;;;;;;19.77;15.03;;;;;;;5.44;99.35;100931.87;1749712;81;20901;-86
2022/11/26 02:41:51;;;;;;;20.10;14.87;;;;;;;5.46;99.37;100938.72;1752477;80;21295;-87
2022/11/26 02:44:25;;;;;;;18.07;14.98;;;;;;;5.48;99.40;100936.91;1760645;79;21665;-87
2022/11/26 02:46:56;;;;;;;18.10;13.93;;;;;;;5.52;99.51;100935.91;1773969;79;20951;-86
2022/11/26 02:49:23;;;;;;;19.27;16.27;;;;;;;5.57;99.43;100937.05;1770164;80;20931;-85
2022/11/26 02:51:53;;;;;;;21.40;15.98;;;;;;;5.59;99.25;100936.09;1772453;79;20884;-87
2022/11/26 02:54:20;;;;;;;20.55;15.55;;;;;;;5.61;99.11;100942.09;1783348;79;21125;-85
2022/11/26 02:56:47;;;;;;;21.20;15.65;;;;;;;5.64;99.09;100945.50;1750913;79;21030;-85
2022/11/26 02:59:13;;;;;;;18.50;14.73;;;;;;;5.64;98.86;100949.41;1746876;81;20935;-86
2022/11/26 03:01:46;;;;;;;22.62;16.05;;;;;;;5.63;98.85;100954.22;1748179;80;20943;-86
2022/11/26 03:04:20;;;;;;;21.75;15.88;;;;;;;5.60;98.81;100951.25;1744880;81;21387;-86
2022/11/26 03:06:47;;;;;;;24.12;17.73;;;;;;;5.63;99.00;100956.83;1745105;81;21606;-87
2022/11/26 03:09:18;;;;;;;21.02;17.55;;;;;;;5.65;98.99;100959.77;1744538;81;20983;-87
2022/11/26 03:11:46;;;;;;;23.55;16.95;;;;;;;5.68;98.98;100961.41;1687500;82;21007;-85
2022/11/26 03:14:12;;;;;;;21.52;14.78;;;;;;;5.68;98.70;100965.31;1739881;81;21560;-85
2022/11/26 03:16:39;;;;;;;20.75;14.58;;;;;;;5.67;98.59;100965.77;1741274;81;20896;-88
2022/11/26 03:19:05;;;;;;;19.57;14.33;;;;;;;5.61;98.34;100969.41;1750420;81;21892;-86
2022/11/26 03:21:33;;;;;;;21.10;14.75;;;;;;;5.57;98.32;100963.91;1748943;81;21414;-87
2022/11/26 03:23:59;;;;;;;20.95;14.78;;;;;;;5.54;98.45;100963.19;1749917;81;20943;-86
2022/11/26 03:26:26;;;;;;;22.95;16.93;;;;;;;5.55;98.67;100972.67;1749742;80;21031;-85
2022/11/26 03:28:52;;;;;;;19.20;14.28;;;;;;;5.55;98.63;100973.97;1749254;80;21398;-87
2022/11/26 03:31:18;;;;;;;20.08;14.55;;;;;;;5.58;98.76;100986.44;1749372;80;21204;-84
2022/11/26 03:33:45;;;;;;;20.10;14.28;;;;;;;5.58;98.59;100977.34;1760152;80;20955;-86
2022/11/26 03:36:11;;;;;;;18.52;14.10;;;;;;;5.59;98.58;100983.38;1762549;80;20895;-85
2022/11/26 03:38:38;;;;;;;22.90;15.13;;;;;;;5.57;98.35;100980.82;1751190;81;21132;-86
2022/11/26 03:41:04;;;;;;;21.20;14.63;;;;;;;5.55;98.29;100983.08;1747771;80;20994;-86
2022/11/26 03:43:31;;;;;;;20.72;14.18;;;;;;;5.53;98.32;100987.02;1749833;80;21258;-87
2022/11/26 03:45:58;;;;;;;20.15;14.18;;;;;;;5.56;98.52;100996.50;1753366;80;20994;-85
2022/11/26 03:48:25;;;;;;;18.62;14.23;;;;;;;5.56;98.26;100996.50;1749487;81;21144;-87
2022/11/26 03:50:51;;;;;;;22.50;14.98;;;;;;;5.54;98.30;101003.05;1753033;79;20996;-86
2022/11/26 03:53:18;;;;;;;21.73;14.13;;;;;;;5.53;98.30;101006.98;1754476;79;20947;-85
2022/11/26 03:55:44;;;;;;;26.82;17.12;;;;;;;5.52;98.29;101007.91;1750407;80;22138;-86
2022/11/26 03:58:11;;;;;;;20.92;14.25;;;;;;;5.50;98.36;101012.30;1765550;80;20893;-83
2022/11/26 04:00:37;;;;;;;21.15;15.38;;;;;;;5.50;98.42;101013.61;1754887;80;21443;-83
2022/11/26 04:03:04;;;;;;;19.40;14.33;;;;;;;5.50;98.50;101012.30;1766958;80;21356;-84
2022/11/26 04:05:30;;;;;;;23.18;13.95;;;;;;;5.50;98.56;101016.20;1746896;80;20967;-86
2022/11/26 04:07:57;;;;;;;19.40;14.98;;;;;;;5.51;98.54;101021.80;1732662;81;21299;-84
2022/11/26 04:10:23;;;;;;;20.85;14.20;;;;;;;5.52;98.56;101028.25;1751440;80;20867;-85
2022/11/26 04:12:50;;;;;;;19.62;13.78;;;;;;;5.50;98.36;101030.05;1751590;80;20940;-87
2022/11/26 04:15:17;;;;;;;16.80;13.35;;;;;;;5.48;98.22;101028.41;1746692;80;20891;-86
2022/11/26 04:17:43;;;;;;;23.32;15.88;;;;;;;5.43;98.30;101029.86;1749282;80;20915;-85
2022/11/26 04:20:12;;;;;;;21.42;14.95;;;;;;;5.43;98.37;101025.95;1756969;78;21232;-87
2022/11/26 04:22:39;;;;;;;23.40;15.20;;;;;;;5.45;98.64;101044.09;1749866;80;21534;-86
2022/11/26 04:25:07;;;;;;;20.65;14.78;;;;;;;5.44;98.53;101045.00;1751440;80;21365;-87
2022/11/26 04:27:33;;;;;;;24.23;16.75;;;;;;;5.43;98.45;101051.13;1748108;80;21026;-84
2022/11/26 04:30:00;;;;;;;27.52;16.30;;;;;;;5.41;98.50;101049.86;1751881;80;20991;-87
2022/11/26 04:32:26;;;;;;;21.55;15.65;;;;;;;5.41;98.56;101044.66;1748627;80;21230;-87
2022/11/26 04:34:55;;;;;;;21.77;14.53;;;;;;;5.44;98.82;101050.20;1751757;80;21045;-87
2022/11/26 04:37:22;;;;;;;21.75;15.43;;;;;;;5.47;98.71;101057.91;1751280;80;20938;-87
2022/11/26 04:39:48;;;;;;;26.68;16.20;;;;;;;5.45;98.30;101048.87;1746731;80;21002;-85
2022/11/26 04:42:15;;;;;;;21.27;14.53;;;;;;;5.42;98.31;101052.84;1752767;81;20950;-86
2022/11/26 04:44:42;;;;;;;22.07;14.28;;;;;;;5.45;98.42;101062.30;1750668;80;21889;-87
2022/11/26 04:47:08;;;;;;;21.62;15.00;;;;;;;5.43;98.09;101055.87;1752961;80;21373;-86
2022/11/26 04:49:35;;;;;;;22.07;15.43;;;;;;;5.40;98.12;101065.92;1751803;80;20905;-88
2022/11/26 04:52:03;;;;;;;21.87;15.25;;;;;;;5.40;98.14;101063.32;1754518;80;20973;-86
2022/11/26 04:54:30;;;;;;;25.20;17.30;;;;;;;5.40;98.07;101066.34;1747893;80;20973;-85
2022/11/26 04:56:56;;;;;;;24.32;17.07;;;;;;;5.40;98.09;101068.95;1752484;80;21132;-84
2022/11/26 04:59:23;;;;;;;18.87;14.05;;;;;;;5.40;98.08;101075.45;1750697;80;21050;-87
2022/11/26 05:01:49;;;;;;;20.60;14.38;;;;;;;5.39;97.94;101078.97;1747229;80;20908;-86
2022/11/26 05:04:16;;;;;;;21.68;13.65;;;;;;;5.38;98.02;101078.55;1749379;80;20969;-86
2022/11/26 05:06:44;;;;;;;20.82;14.40;;;;;;;5.37;97.89;101084.20;1753133;81;20973;-87
2022/11/26 05:09:11;;;;;;;20.37;13.62;;;;;;;5.35;97.86;101084.70;1755147;80;21240;-88
2022/11/26 05:11:39;;;;;;;19.15;13.32;;;;;;;5.34;97.88;101083.47;1756359;80;21081;-88
2022/11/26 05:14:06;;;;;;;18.92;13.58;;;;;;;5.32;97.91;101084.80;1749930;80;21475;-87
2022/11/26 05:16:32;;;;;;;16.82;13.18;;;;;;;5.32;97.90;101088.70;1751341;81;20982;-87
2022/11/26 05:18:59;;;;;;;17.92;14.13;;;;;;;5.32;97.84;101085.27;1756341;80;20930;-86
2022/11/26 05:21:26;;;;;;;19.92;12.90;;;;;;;5.31;97.91;101087.44;1760151;79;21112;-88
2022/11/26 05:23:52;;;;;;;22.15;14.43;;;;;;;5.33;98.01;101095.59;1760971;80;20897;-86
2022/11/26 05:26:19;;;;;;;17.17;13.78;;;;;;;5.34;97.93;101095.17;1751220;81;20876;-86
2022/11/26 05:28:45;;;;;;;20.12;13.80;;;;;;;5.36;97.99;101099.88;1748748;80;20927;-89
2022/11/26 05:31:12;;;;;;;21.10;16.23;;;;;;;5.37;97.89;101102.41;1745812;80;21145;-87
2022/11/26 05:33:39;;;;;;;17.12;12.60;;;;;;;5.37;98.02;101102.41;1755754;80;21556;-88
2022/11/26 05:36:06;;;;;;;15.53;12.82;;;;;;;5.40;98.08;101110.56;1750092;81;21030;-87
2022/11/26 05:40:54;;;;;;;19.70;13.10;;;;;;;5.46;97.81;101114.28;1884216;75;22735;-88
2022/11/26 05:43:20;;;;;;;15.68;12.73;;;;;;;5.39;97.62;101120.58;1860930;77;21375;-88
2022/11/26 05:45:47;;;;;;;16.95;11.93;;;;;;;5.40;97.63;101127.47;1860804;77;21147;-87
2022/11/26 05:48:13;;;;;;;15.30;12.45;;;;;;;5.38;97.48;101125.36;1860791;77;20875;-87
2022/11/26 05:50:40;;;;;;;16.90;13.70;;;;;;;5.36;97.41;101133.69;1860865;77;20919;-84
2022/11/26 05:53:07;;;;;;;16.27;13.35;;;;;;;5.33;97.42;101136.36;1860733;77;20962;-87
2022/11/26 05:55:35;;;;;;;14.98;11.95;;;;;;;5.32;97.73;101142.47;1860905;77;21069;-86
2022/11/26 05:58:02;;;;;;;22.05;13.98;;;;;;;5.31;97.77;101135.55;1860923;76;21826;-88
2022/11/26 06:00:29;;;;;;;18.12;13.32;;;;;;;5.31;97.77;101135.09;1860863;77;20926;-89
2022/11/26 06:02:56;;;;;;;17.05;12.88;;;;;;;5.32;97.84;101134.67;1860840;77;20967;-87
2022/11/26 06:05:22;;;;;;;15.23;11.78;;;;;;;5.34;97.97;101142.83;1860759;76;20887;-88
2022/11/26 06:07:51;;;;;;;17.02;11.88;;;;;;;5.33;97.76;101146.30;1860869;77;20832;-88
2022/11/26 06:10:19;;;;;;;17.20;13.05;;;;;;;5.30;97.70;101146.41;1860851;77;21787;-89
2022/11/26 06:12:45;;;;;;;14.30;11.78;;;;;;;5.29;97.64;101138.22;1860896;77;21360;-89
2022/11/26 06:15:12;;;;;;;13.90;10.55;;;;;;;5.29;97.66;101136.05;1860895;77;20871;-88
2022/11/26 06:17:38;;;;;;;13.95;11.57;;;;;;;5.31;97.75;101140.75;1860741;77;20910;-87
2022/11/26 06:20:07;;;;;;;14.23;12.35;;;;;;;5.34;97.74;101140.67;1860774;77;20950;-86
2022/11/26 06:22:38;;;;;;;16.45;10.65;;;;;;;5.34;97.43;101141.98;1860715;77;21185;-89
2022/11/26 06:25:07;;;;;;;17.42;11.57;;;;;;;5.34;97.47;101136.32;1860786;77;21325;-89
2022/11/26 06:27:35;;;;;;;17.67;12.03;;;;;;;5.36;97.37;101150.13;1860964;77;20816;-88
2022/11/26 06:30:03;;;;;;;19.45;11.95;;;;;;;5.35;97.21;101153.61;1860870;77;20891;-89
2022/11/26 06:32:30;;;;;;;20.05;13.28;;;;;;;5.33;97.20;101158.00;1860712;76;20915;-88
2022/11/26 06:34:57;;;;;;;16.12;12.13;;;;;;;5.33;97.41;101154.56;1860847;77;21741;-90
2022/11/26 06:37:24;;;;;;;14.23;12.10;;;;;;;5.37;97.52;101156.18;1860715;77;21352;-88
2022/11/26 06:39:51;;;;;;;15.25;11.48;;;;;;;5.40;97.42;101159.98;1860641;77;20906;-86
2022/11/26 06:42:18;;;;;;;18.07;11.70;;;;;;;5.38;97.27;101158.74;1860669;76;20962;-88
2022/11/26 06:44:45;;;;;;;15.65;10.38;;;;;;;5.38;97.38;101156.14;1860930;77;20879;-88
2022/11/26 06:47:12;;;;;;;13.83;10.75;;;;;;;5.38;97.25;101148.77;1861786;77;21115;-88
2022/11/26 06:49:39;;;;;;;15.10;11.10;;;;;;;5.38;97.10;101154.84;1862014;77;20970;-88
2022/11/26 06:52:06;;;;;;;14.73;11.03;;;;;;;5.38;97.06;101163.07;1861241;76;20954;-88
2022/11/26 06:54:33;;;;;;;14.25;11.85;;;;;;;5.38;97.06;101164.37;1860235;76;20919;-85
2022/11/26 06:57:00;;;;;;;18.35;12.50;;;;;;;5.40;97.22;101171.68;1860151;77;20915;-88
2022/11/26 06:59:26;;;;;;;17.98;12.35;;;;;;;5.44;97.31;101170.70;1860216;76;21079;-87
2022/11/26 07:01:53;;;;;;;16.62;12.03;;;;;;;5.46;97.13;101174.11;1860111;77;21095;-89
2022/11/26 07:04:19;;;;;;;13.62;10.88;;;;;;;5.46;96.98;101171.50;1860711;77;20910;-88
2022/11/26 07:06:46;;;;;;;16.40;13.38;;;;;;;5.48;97.02;101172.31;1860351;77;20947;-90
2022/11/26 07:09:12;;;;;;;13.90;12.37;;;;;;;5.49;96.89;101172.73;1860643;76;20832;-89
2022/11/26 07:11:39;;;;;;;16.57;10.50;;;;;;;5.50;96.88;101169.67;1860372;76;21142;-88
2022/11/26 07:14:07;;;;;;;13.90;10.88;;;;;;;5.51;96.82;101173.97;1860605;77;20970;-88
2022/11/26 07:16:34;;;;;;;13.75;11.65;;;;;;;5.50;96.39;101172.28;1860587;77;20899;-89
2022/11/26 07:19:01;;;;;;;15.08;10.98;;;;;;;5.45;96.31;101177.62;1860364;77;20970;-88
2022/11/26 07:21:27;;;;;;;15.00;11.45;;;;;;;5.45;96.43;101180.64;1860291;77;20887;-87
2022/11/26 07:23:54;;;;;;;14.85;11.88;;;;;;;5.46;96.59;101178.47;1860097;76;21340;-88
2022/11/26 07:26:21;;;;;;;17.12;11.80;;;;;;;5.49;96.52;101180.96;1860246;77;20871;-89
2022/11/26 07:28:48;;;;;;;14.15;10.82;;;;;;;5.48;96.09;101177.52;1860387;77;20920;-91
2022/11/26 07:31:18;;;;;;;16.57;11.83;;;;;;;5.45;95.92;101181.52;1860563;77;20919;-88
2022/11/26 07:33:45;;;;;;;15.08;12.30;;;;;;;5.43;95.84;101182.47;1860645;76;20922;-87
2022/11/26 07:36:25;;;;;;;15.75;10.93;;;;;;;5.44;96.06;101185.00;1860343;76;21226;-88
2022/11/26 07:38:57;;;;;;;15.18;10.85;;;;;;;5.49;96.00;101188.77;1860705;76;20903;-87
2022/11/26 07:41:24;;;;;;;14.13;11.03;;;;;;;5.53;95.76;101187.33;1850592;76;20970;-88
2022/11/26 07:43:54;;;;;;;16.10;11.38;;;;;;;5.54;95.54;101194.25;1848965;76;20897;-89
2022/11/26 07:46:24;;;;;;;15.20;10.93;;;;;;;5.55;95.31;101196.39;1849744;76;20909;-89
2022/11/26 07:48:53;;;;;;;17.55;12.33;;;;;;;5.54;95.25;101193.41;1849643;77;21852;-89
2022/11/26 07:51:23;;;;;;;16.48;12.47;;;;;;;5.56;95.33;101193.76;1824547;77;20933;-90
2022/11/26 07:53:52;;;;;;;14.65;12.15;;;;;;;5.57;95.23;101199.80;1848967;77;20962;-89
2022/11/26 07:56:18;;;;;;;17.65;12.47;;;;;;;5.55;95.22;101198.54;1849605;77;20996;-88
2022/11/26 07:58:45;;;;;;;16.35;12.35;;;;;;;5.54;95.36;101196.01;1849829;77;20920;-89
2022/11/26 08:01:21;;;;;;;16.15;12.20;;;;;;;5.57;95.71;101206.30;1849935;77;21363;-89
2022/11/26 08:03:49;;;;;;;18.37;11.88;;;;;;;5.64;95.76;101208.28;1849704;77;20929;-87
2022/11/26 08:06:19;;;;;;;20.82;13.05;;;;;;;5.65;95.44;101212.14;1849851;77;20995;-90
2022/11/26 08:08:45;;;;;;;16.00;12.20;;;;;;;5.66;95.27;101213.83;1849753;77;20987;-89
2022/11/26 08:11:18;;;;;;;16.52;11.93;;;;;;;5.66;95.14;101218.19;1849530;77;20896;-89
2022/11/26 08:13:47;;;;;;;15.08;11.03;;;;;;;5.64;95.11;101213.48;1849322;76;21129;-87
2022/11/26 08:16:14;;;;;;;15.93;13.00;;;;;;;5.65;95.07;101211.27;1849651;77;20822;-88
2022/11/26 08:18:40;;;;;;;17.35;12.75;;;;;;;5.61;95.13;101219.63;1849849;77;20928;-88
2022/11/26 08:21:07;;;;;;;16.05;11.75;;;;;;;5.63;95.34;101219.14;1849269;76;21385;-90
2022/11/26 08:23:33;;;;;;;17.42;12.95;;;;;;;5.64;95.09;101226.03;1849473;77;20842;-90
2022/11/26 08:26:11;;;;;;;15.88;11.40;;;;;;;5.63;95.03;101220.90;1849516;77;21803;-89
2022/11/26 08:28:37;;;;;;;18.55;11.57;;;;;;;5.62;95.15;101227.83;1849515;77;20826;-89
2022/11/26 08:31:07;;;;;;;17.48;13.00;;;;;;;5.60;95.04;101230.50;1849592;77;20842;-90
2022/11/26 08:33:33;;;;;;;18.02;12.50;;;;;;;5.58;95.12;101229.69;1849800;77;21366;-89
2022/11/26 08:36:00;;;;;;;17.73;12.70;;;;;;;5.60;95.37;101229.63;1849531;77;21398;-90
2022/11/26 08:38:27;;;;;;;16.50;12.90;;;;;;;5.66;95.24;101234.65;1849411;77;21240;-88
2022/11/26 08:40:54;;;;;;;15.88;12.78;;;;;;;5.66;95.08;101224.24;1856499;77;20902;-89
2022/11/26 08:43:21;;;;;;;15.60;12.37;;;;;;;5.67;95.30;101227.69;1860463;77;20859;-87
2022/11/26 08:45:56;;;;;;;12.75;10.60;;;;;;;5.69;95.22;101234.58;1863432;77;20946;-86
2022/11/26 08:48:22;;;;;;;16.60;12.30;;;;;;;5.70;95.02;101223.72;1862514;77;20835;-86
2022/11/26 08:50:49;;;;;;;13.85;10.72;;;;;;;5.67;94.87;101229.87;1861786;77;21179;-87
2022/11/26 08:53:16;;;;;;;13.70;10.45;;;;;;;5.67;94.91;101232.47;1860318;76;21571;-89
2022/11/26 08:55:43;;;;;;;15.70;12.45;;;;;;;5.67;94.70;101238.09;1860315;77;20883;-87
2022/11/26 08:58:10;;;;;;;17.87;12.63;;;;;;;5.65;94.71;101226.87;1860138;77;20923;-90
2022/11/26 09:00:36;;;;;;;16.77;11.30;;;;;;;5.68;94.97;101232.02;1860178;77;20982;-87
2022/11/26 09:03:03;;;;;;;17.40;11.88;;;;;;;5.68;94.82;101220.30;1860131;76;21127;-88
2022/11/26 09:05:30;;;;;;;18.27;12.55;;;;;;;5.69;94.74;101226.77;1860281;77;20942;-89
2022/11/26 09:07:57;;;;;;;19.30;12.25;;;;;;;5.69;94.78;101233.28;1860171;77;20871;-87
2022/11/26 09:10:24;;;;;;;15.50;11.03;;;;;;;5.71;95.08;101240.56;1860096;77;20903;-87
2022/11/26 09:12:50;;;;;;;16.75;10.90;;;;;;;5.74;94.98;101226.63;1860141;77;20942;-89
2022/11/26 09:15:17;;;;;;;16.85;12.03;;;;;;;5.75;94.64;101226.56;1860110;77;21134;-87
2022/11/26 09:17:43;;;;;;;16.25;11.30;;;;;;;5.77;94.74;101231.27;1860239;77;21348;-88
2022/11/26 09:20:11;;;;;;;16.10;10.93;;;;;;;5.83;94.68;101233.31;1860131;76;20899;-89
2022/11/26 09:22:38;;;;;;;15.18;11.28;;;;;;;5.86;94.29;101228.00;1860223;76;20970;-89
2022/11/26 09:25:05;;;;;;;17.55;12.40;;;;;;;5.87;94.13;101228.39;1860273;77;21387;-90
2022/11/26 09:27:32;;;;;;;16.50;11.95;;;;;;;5.88;93.92;101234.86;1860663;77;21923;-87
2022/11/26 09:29:58;;;;;;;17.42;12.13;;;;;;;5.88;93.91;101236.62;1860366;76;20906;-89
2022/11/26 09:32:25;;;;;;;14.00;10.43;;;;;;;5.90;93.88;101225.25;1860050;77;20871;-87
2022/11/26 09:34:52;;;;;;;16.93;12.93;;;;;;;5.91;93.47;101235.20;1860174;76;20883;-88
2022/11/26 09:37:19;;;;;;;18.32;12.55;;;;;;;5.87;93.23;101241.41;1860208;77;20839;-87
2022/11/26 09:39:45;;;;;;;18.50;12.60;;;;;;;5.83;93.25;101238.52;1859634;76;21902;-89
2022/11/26 09:42:48;;;;;;;17.17;12.23;;;;;;;5.84;93.37;101238.91;1849353;77;21422;-86
2022/11/26 09:45:38;;;;;;;19.48;12.45;;;;;;;5.83;93.38;101236.76;1849512;76;20865;-89
2022/11/26 09:48:07;;;;;;;22.20;14.33;;;;;;;5.83;93.32;101238.06;1848346;77;20885;-90
2022/11/26 09:50:35;;;;;;;19.00;12.55;;;;;;;5.83;93.26;101239.36;1823850;77;20874;-90
2022/11/26 09:53:12;;;;;;;19.80;14.03;;;;;;;5.80;93.23;101239.02;1824087;77;20877;-89
2022/11/26 09:55:40;;;;;;;19.55;14.43;;;;;;;5.81;93.37;101241.16;1849165;77;20921;-88
2022/11/26 09:58:33;;;;;;;23.12;15.78;;;;;;;5.83;93.43;101242.42;1849213;77;21012;-86
2022/11/26 10:01:00;;;;;;;24.02;14.20;;;;;;;5.84;93.54;101242.81;1849252;76;20925;-87
2022/11/26 10:03:35;;;;;;;24.80;15.00;;;;;;;5.85;93.52;101247.98;1823334;77;20964;-87
2022/11/26 10:06:30;;;;;;;18.05;13.08;;;;;;;5.86;93.59;101248.37;1849507;76;21818;-88
2022/11/26 10:09:23;;;;;;;19.87;13.60;;;;;;;5.90;93.56;101249.14;1850730;77;20929;-87
2022/11/26 10:12:02;;;;;;;19.02;13.05;;;;;;;5.87;93.19;101248.78;1852155;77;20882;-87
2022/11/26 10:14:55;;;;;;;21.05;15.00;;;;;;;5.78;93.21;101259.45;1851492;77;20933;-87
2022/11/26 10:17:35;;;;;;;22.75;14.63;;;;;;;5.71;93.49;101256.17;1850257;77;21353;-87
2022/11/26 10:20:16;;;;;;;23.25;15.15;;;;;;;5.68;93.73;101258.03;1849539;76;21237;-87
2022/11/26 10:23:03;;;;;;;19.25;14.13;;;;;;;5.67;93.84;101255.01;1849435;77;20908;-88
2022/11/26 10:25:36;;;;;;;28.47;18.40;;;;;;;5.64;93.90;101260.31;1849552;77;20909;-85
2022/11/26 10:28:05;;;;;;;21.73;15.80;;;;;;;5.65;94.17;101264.19;1849776;77;20886;-85
2022/11/26 10:30:31;;;;;;;27.42;15.88;;;;;;;5.69;94.15;101258.00;1823610;77;20908;-89
2022/11/26 10:32:59;;;;;;;25.32;15.72;;;;;;;5.71;94.04;101261.83;1850044;76;21212;-88
2022/11/26 10:35:28;;;;;;;22.67;17.17;;;;;;;5.74;93.93;101260.46;1850960;77;20952;-86
2022/11/26 10:37:56;;;;;;;26.85;20.43;;;;;;;5.77;93.79;101266.41;1824419;77;20885;-85
2022/11/26 10:40:25;;;;;;;31.50;22.27;;;;;;;5.79;93.72;101268.52;1848475;77;20982;-86
2022/11/26 10:43:11;;;;;;;27.90;20.40;;;;;;;5.80;93.58;101263.73;1837093;77;20870;-86
2022/11/26 10:45:49;;;;;;;26.65;19.02;;;;;;;5.85;93.60;101268.80;1836473;77;22142;-86
2022/11/26 10:48:20;;;;;;;29.65;19.48;;;;;;;5.90;93.48;101276.47;1836911;77;21112;-88
2022/11/26 10:51:23;;;;;;;26.17;19.85;;;;;;;5.94;93.16;101274.18;1836425;77;20966;-86
2022/11/26 10:53:52;;;;;;;43.87;32.03;;;;;;;5.95;92.70;101277.20;1836257;77;21396;-88
2022/11/26 10:56:22;;;;;;;49.80;38.30;;;;;;;5.90;92.64;101279.92;1836586;77;20879;-87
2022/11/26 10:58:50;;;;;;;57.27;42.13;;;;;;;5.88;92.43;101275.20;1836736;77;21577;-87
2022/11/26 11:01:17;;;;;;;44.15;33.55;;;;;;;5.85;92.38;101283.11;1836475;77;20950;-88
2022/11/26 11:03:51;;;;;;;41.58;31.07;;;;;;;5.81;92.26;101284.95;1836205;77;21345;-85
2022/11/26 11:06:36;;;;;;;44.90;32.98;;;;;;;5.80;92.34;101287.58;1834375;76;20930;-87
2022/11/26 11:09:29;;;;;;;42.17;32.43;;;;;;;5.80;92.48;101286.28;1835435;77;20835;-86
2022/11/26 11:12:16;;;;;;;34.58;26.23;;;;;;;5.80;92.52;101282.38;1817792;76;21252;-87
2022/11/26 11:14:46;;;;;;;30.62;23.65;;;;;;;5.84;92.38;101289.66;1834149;76;20882;-87
2022/11/26 11:17:34;;;;;;;34.53;26.12;;;;;;;5.84;92.13;101296.16;1835136;77;21399;-89
2022/11/26 11:20:12;;;;;;;29.15;22.37;;;;;;;5.83;91.81;101295.32;1835098;77;21017;-88
2022/11/26 11:22:41;;;;;;;30.97;23.67;;;;;;;5.77;91.67;101300.70;1835787;77;20918;-88
2022/11/26 11:25:25;;;;;;;31.82;23.83;;;;;;;5.72;91.70;101299.98;1836346;77;22225;-87
2022/11/26 11:27:51;;;;;;;30.95;25.92;;;;;;;5.67;91.69;101304.02;1833132;78;20883;-87
2022/11/26 11:30:26;;;;;;;30.17;24.67;;;;;;;5.66;92.06;101307.50;1835818;77;21399;-86
2022/11/26 11:32:56;;;;;;;27.98;21.05;;;;;;;5.70;92.15;101306.53;1835852;77;21400;-88